Detall de PIREP

Printer-friendly versionPDF version

[2014/12/12 10:15:00]
Flight IATA:CT3309
Pilot Number:012
Company ICAO:CAT
Aircraft Type:MD11/E
PAX:0
Aircraft Registration:CARGO
Departing Airport: HLLT
Destination Airport: LEZG
Alternate Airport:LEBL
Online: VATSIM
Route:TANLI UP128 TBS UA31 ALR UG30 SADAF UN856 RES UN863 ARBEK UN725 LOBAR
Flight Level:F320
No Slew and time accel
No pause
Crash detect
Detect pilot in Cockpit between each 30 and 45 minutes
10:15 Zero fuel Weight: 393890 Lbs, Fuel Weight: 64742 Lbs
10:15 VATSIM:No METAR available for HLLT.
10:15 VATSIM:LEZG 121000Z 11007KT 080V140 7000 NSC 06/03 Q1021
10:16 Parking Brakes off
10:22 Take-off
10:22 Take off Weight: 457293 Lbs
10:22 Wind: 310º @ 001 Knots Heading: 269º
10:22 POS N32º 39´ 53´´ E013º 08´ 54´´
10:22 Gear Up: 203 Knots
10:22 Flaps:3 at 203 Knots
10:23 Flaps:2 at 204 Knots
10:23 Flaps:3 at 207 Knots
10:23 Flaps:2 at 209 Knots
10:23 Flaps:1 at 211 Knots
10:23 Flaps:0 at 235 Knots
10:33 TOC
10:33 Fuel Weight: 55138 Lb
10:37 Wind:300º@029 Knots Heading: 305º Ground Speed: 453 Knots Altitude 32352 ft
10:52 Wind:295º@025 Knots Heading: 305º Ground Speed: 455 Knots Altitude 32368 ft
11:07 Wind:278º@031 Knots Heading: 303º Ground Speed: 453 Knots Altitude 32303 ft
11:22 Wind:264º@028 Knots Heading: 277º Ground Speed: 455 Knots Altitude 32362 ft
11:37 Wind:259º@031 Knots Heading: 278º Ground Speed: 454 Knots Altitude 32345 ft
11:52 Wind:283º@032 Knots Heading: 326º Ground Speed: 459 Knots Altitude 32273 ft
12:07 Wind:285º@036 Knots Heading: 350º Ground Speed: 468 Knots Altitude 32224 ft
12:18 TOD
12:18 Fuel Weight: 27159 Lb
12:22 Wind:267º@035 Knots Heading: 286º Ground Speed: 382 Knots Altitude 25383 ft
12:32 Flaps:1 at 250 Knots
12:32 Flaps:2 at 254 Knots
12:32 Flaps:3 at 253 Knots
12:36 Flaps:4 at 211 Knots
12:36 Flaps:3 at 210 Knots
12:36 Flaps:4 at 209 Knots
12:36 Gear Down: 208 Knots
12:36 Flaps:5 at 208 Knots
12:36 Flaps:6 at 208 Knots
12:37 Wind:224º@009 Knots Heading: 220º Ground Speed: 182 Knots Altitude 4612 ft
12:37 Flaps:7 at 181 Knots
12:39 TouchDown:Rate -242 ft/min Speed: 147 Knots
12:40 VATSIM:LEZG 121200Z 11009KT 080V150 CAVOK 08/04 Q1019
12:40 Land
12:40 Wind:135º@009 Knots
12:40 Heading: 300º
12:40 Flight Duration: 02:18
12:40 Landing Weight: 417928 Lbs
12:40 POS N41º 39´ 56´´ W001º 01´ 55´´
12:40 Parking brakes on
12:40 Block to Block Duration: 02:24
12:40 Final Fuel: 23985 Lbls
12:40 Spent Fuel: 40756 Lbls
12:40 Flight Length: 977 NM
12:40 TOD Land Length: 106 NM

Exportar CSV

Powered by Drupal - Modified by Danger4k